Time;durP1;ratioP1;P1;durP2;ratioP2;P2;SDS_P1;SDS_P2;PMS_P1;PMS_P2;Temp;Humidity;BMP_temperature;BMP_pressure;BME280_temperature;BME280_humidity;BME280_pressure;Samples;Min_cycle;Max_cycle;Signal;HPM_P1;HPM_P2
2024/02/07 00:02:19;;;;;;;2.10;1.90;;;;;;;;;;6361576;28;20478;-59
2024/02/07 00:05:23;;;;;;;3.23;1.97;;;;;;;;;;6363594;28;20301;-58
2024/02/07 00:08:27;;;;;;;2.43;2.00;;;;;;;;;;6363606;28;20290;-56
2024/02/07 00:11:31;;;;;;;1.67;1.67;;;;;;;;;;6364194;28;20286;-56
2024/02/07 00:14:36;;;;;;;1.70;1.70;;;;;;;;;;6363305;28;20298;-57
2024/02/07 00:17:40;;;;;;;1.87;1.77;;;;;;;;;;6345218;28;20457;-55
2024/02/07 00:20:44;;;;;;;1.93;1.83;;;;;;;;;;6344138;28;20505;-57
2024/02/07 00:23:48;;;;;;;1.90;1.90;;;;;;;;;;6362827;28;20293;-58
2024/02/07 00:26:52;;;;;;;2.23;1.97;;;;;;;;;;6363284;28;20284;-56
2024/02/07 00:29:58;;;;;;;1.80;1.73;;;;;;;;;;6362544;28;20294;-57
2024/02/07 00:33:02;;;;;;;2.30;2.20;;;;;;;;;;6362838;28;20297;-56
2024/02/07 00:36:07;;;;;;;2.00;2.00;;;;;;;;;;6362337;28;20282;-57
2024/02/07 00:39:11;;;;;;;2.20;2.10;;;;;;;;;;6362806;28;20308;-58
2024/02/07 00:42:15;;;;;;;1.93;1.83;;;;;;;;;;6363390;28;20292;-54
2024/02/07 00:45:21;;;;;;;2.57;1.90;;;;;;;;;;6362836;28;20297;-57
2024/02/07 00:48:24;;;;;;;4.10;2.30;;;;;;;;;;6361631;28;20577;-58
2024/02/07 00:51:28;;;;;;;5.53;2.30;;;;;;;;;;6363138;28;20289;-56
2024/02/07 00:54:32;;;;;;;2.03;2.03;;;;;;;;;;6361611;28;20376;-57
2024/02/07 00:57:36;;;;;;;2.20;2.10;;;;;;;;;;6362664;28;20233;-57
2024/02/07 01:00:42;;;;;;;2.10;2.10;;;;;;;;;;6362260;28;20285;-57
2024/02/07 01:03:46;;;;;;;2.50;2.40;;;;;;;;;;6361875;28;20311;-56
2024/02/07 01:06:50;;;;;;;2.50;2.40;;;;;;;;;;6362431;28;20585;-54
2024/02/07 01:09:54;;;;;;;2.50;2.40;;;;;;;;;;6360588;28;20291;-53
2024/02/07 01:12:57;;;;;;;2.30;2.30;;;;;;;;;;6361179;28;20289;-55
2024/02/07 01:16:03;;;;;;;2.80;2.60;;;;;;;;;;6362154;28;20296;-56
2024/02/07 01:19:07;;;;;;;4.10;2.53;;;;;;;;;;6362187;28;20313;-54
2024/02/07 01:22:11;;;;;;;4.10;2.70;;;;;;;;;;6362562;28;20410;-56
2024/02/07 01:25:15;;;;;;;2.80;2.60;;;;;;;;;;6361402;28;20293;-56
2024/02/07 01:28:19;;;;;;;2.60;2.50;;;;;;;;;;6361489;28;20296;-57
2024/02/07 01:31:25;;;;;;;2.40;2.30;;;;;;;;;;6361878;28;20294;-57
2024/02/07 01:34:29;;;;;;;2.50;2.30;;;;;;;;;;6361433;28;20286;-56
2024/02/07 01:37:33;;;;;;;2.50;2.50;;;;;;;;;;6362031;28;20290;-58
2024/02/07 01:40:42;;;;;;;2.63;2.53;;;;;;;;;;6361109;28;20293;-56
2024/02/07 01:43:47;;;;;;;2.80;2.57;;;;;;;;;;6378072;27;20297;-57
2024/02/07 01:46:53;;;;;;;2.40;2.30;;;;;;;;;;6387523;27;20292;-56
2024/02/07 01:49:57;;;;;;;2.50;2.43;;;;;;;;;;6386932;27;20530;-55
2024/02/07 01:53:03;;;;;;;2.40;2.20;;;;;;;;;;6368723;27;20310;-55
2024/02/07 01:56:08;;;;;;;2.60;2.50;;;;;;;;;;6386003;27;20294;-56
2024/02/07 01:59:11;;;;;;;2.80;2.70;;;;;;;;;;6386077;27;20286;-57
2024/02/07 02:02:23;;;;;;;10.90;2.67;;;;;;;;;;6368330;27;20296;-57
2024/02/07 02:05:27;;;;;;;2.30;2.30;;;;;;;;;;6385887;27;20293;-55
2024/02/07 02:08:31;;;;;;;2.63;2.53;;;;;;;;;;6385914;27;20294;-56
2024/02/07 02:11:37;;;;;;;2.40;2.40;;;;;;;;;;6370249;27;20294;-57
2024/02/07 02:14:41;;;;;;;2.50;2.40;;;;;;;;;;6360372;28;20309;-57
2024/02/07 02:17:46;;;;;;;2.27;2.27;;;;;;;;;;6360816;28;20304;-57
2024/02/07 02:20:50;;;;;;;2.27;2.27;;;;;;;;;;6360346;28;20505;-58
2024/02/07 02:24:11;;;;;;;2.90;2.70;;;;;;;;;;6359577;28;20566;-56
2024/02/07 02:27:27;;;;;;;2.63;2.47;;;;;;;;;;6354067;28;20346;-58
2024/02/07 02:30:35;;;;;;;2.67;2.37;;;;;;;;;;6359387;28;20294;-56
2024/02/07 02:33:39;;;;;;;2.27;2.27;;;;;;;;;;6359679;28;20286;-56
2024/02/07 02:36:44;;;;;;;2.93;2.73;;;;;;;;;;6360050;28;20290;-57
2024/02/07 02:39:48;;;;;;;2.17;2.17;;;;;;;;;;6359811;28;20294;-57
2024/02/07 02:42:52;;;;;;;2.30;2.30;;;;;;;;;;6360550;28;20294;-56
2024/02/07 02:45:58;;;;;;;2.57;2.37;;;;;;;;;;6359565;28;20294;-57
2024/02/07 02:49:02;;;;;;;3.00;2.33;;;;;;;;;;6359699;28;20305;-58
2024/02/07 02:52:06;;;;;;;2.33;2.23;;;;;;;;;;6359359;28;20388;-57
2024/02/07 02:55:11;;;;;;;2.60;2.40;;;;;;;;;;6359113;28;20300;-56
2024/02/07 02:58:18;;;;;;;2.93;2.70;;;;;;;;;;6358996;28;20303;-56
2024/02/07 03:01:40;;;;;;;2.33;2.23;;;;;;;;;;6359814;28;20576;-56
2024/02/07 03:04:48;;;;;;;2.50;2.30;;;;;;;;;;6358926;28;20292;-56
2024/02/07 03:08:05;;;;;;;2.07;2.00;;;;;;;;;;6359548;28;20289;-57
2024/02/07 03:11:09;;;;;;;2.70;2.50;;;;;;;;;;6358520;28;20290;-58
2024/02/07 03:14:13;;;;;;;2.77;2.10;;;;;;;;;;6358918;28;20305;-58
2024/02/07 03:17:19;;;;;;;2.30;2.30;;;;;;;;;;6359635;28;20289;-58
2024/02/07 03:20:23;;;;;;;2.57;2.37;;;;;;;;;;6358909;28;20290;-57
2024/02/07 03:23:28;;;;;;;2.57;2.57;;;;;;;;;;6358813;28;20294;-57
2024/02/07 03:26:32;;;;;;;2.17;2.17;;;;;;;;;;6359490;28;20299;-58
2024/02/07 03:29:36;;;;;;;2.10;2.10;;;;;;;;;;6359101;28;20371;-57
2024/02/07 03:32:41;;;;;;;2.40;2.40;;;;;;;;;;6359731;28;20290;-57
2024/02/07 03:35:45;;;;;;;2.37;2.27;;;;;;;;;;6358743;28;20471;-54
2024/02/07 03:38:49;;;;;;;2.50;2.37;;;;;;;;;;6364028;28;20302;-56
2024/02/07 03:41:53;;;;;;;2.87;2.77;;;;;;;;;;6364701;28;20310;-56
2024/02/07 03:45:03;;;;;;;2.50;2.40;;;;;;;;;;6363861;28;20301;-55
2024/02/07 03:48:13;;;;;;;3.37;3.17;;;;;;;;;;6363897;28;20582;-56
2024/02/07 03:51:17;;;;;;;2.70;2.60;;;;;;;;;;6364388;28;20294;-56
2024/02/07 03:54:21;;;;;;;2.47;2.40;;;;;;;;;;6363127;28;20564;-60
2024/02/07 03:57:25;;;;;;;3.17;2.47;;;;;;;;;;6364516;28;20533;-56
2024/02/07 04:00:29;;;;;;;2.60;2.50;;;;;;;;;;6364078;28;20403;-58
2024/02/07 04:03:35;;;;;;;2.70;2.50;;;;;;;;;;6359312;28;20296;-57
2024/02/07 04:06:40;;;;;;;2.40;2.30;;;;;;;;;;6363466;28;20569;-54
2024/02/07 04:09:45;;;;;;;2.60;2.47;;;;;;;;;;6363211;28;20307;-55
2024/02/07 05:16:23;;;;;;;2.10;1.90;;;;;;;;;;6362125;28;20295;-55
2024/02/07 05:19:27;;;;;;;2.30;2.30;;;;;;;;;;6361788;28;20290;-58
2024/02/07 05:22:31;;;;;;;1.97;1.93;;;;;;;;;;6362138;28;20335;-55
2024/02/07 05:25:37;;;;;;;2.37;2.17;;;;;;;;;;6361862;28;20575;-58
2024/02/07 05:28:41;;;;;;;2.10;2.10;;;;;;;;;;6358971;28;20325;-57
2024/02/07 05:31:45;;;;;;;2.20;2.20;;;;;;;;;;6361806;28;20299;-57
2024/02/07 05:34:53;;;;;;;1.77;1.77;;;;;;;;;;6361145;28;20298;-57
2024/02/07 05:37:57;;;;;;;2.10;2.00;;;;;;;;;;6361108;28;20579;-57
2024/02/07 05:41:03;;;;;;;1.83;1.83;;;;;;;;;;6361896;28;20297;-56
2024/02/07 05:44:07;;;;;;;1.97;1.97;;;;;;;;;;6386746;27;20297;-57
2024/02/07 05:47:11;;;;;;;2.10;2.10;;;;;;;;;;6387196;27;20590;-57
2024/02/07 05:50:15;;;;;;;2.00;2.00;;;;;;;;;;6385535;27;20305;-58
2024/02/07 05:53:19;;;;;;;2.00;2.00;;;;;;;;;;6381753;27;20294;-59
2024/02/07 05:56:25;;;;;;;2.20;2.20;;;;;;;;;;6361703;28;20478;-58
2024/02/07 05:59:29;;;;;;;1.90;1.90;;;;;;;;;;6360566;28;20306;-57
2024/02/07 06:02:33;;;;;;;2.13;1.93;;;;;;;;;;6361274;28;20314;-59
2024/02/07 06:05:37;;;;;;;1.80;1.70;;;;;;;;;;6360975;28;20306;-56
2024/02/07 06:08:42;;;;;;;2.30;2.30;;;;;;;;;;6360817;28;20339;-56
2024/02/07 06:11:47;;;;;;;2.00;2.00;;;;;;;;;;6361402;28;20578;-57
2024/02/07 06:14:51;;;;;;;1.80;1.80;;;;;;;;;;6361071;28;20285;-57
2024/02/07 06:17:55;;;;;;;2.10;2.10;;;;;;;;;;6360483;28;20321;-59
2024/02/07 06:20:59;;;;;;;2.37;2.37;;;;;;;;;;6361109;28;20310;-58
2024/02/07 06:24:03;;;;;;;2.20;2.20;;;;;;;;;;6359911;28;20294;-58
2024/02/07 06:27:09;;;;;;;2.63;2.50;;;;;;;;;;6359758;28;20590;-57
2024/02/07 06:30:13;;;;;;;2.10;2.10;;;;;;;;;;6359959;28;20297;-57
2024/02/07 06:33:17;;;;;;;2.33;2.27;;;;;;;;;;6359624;28;20570;-57
2024/02/07 06:36:22;;;;;;;2.10;2.10;;;;;;;;;;6355583;28;20293;-60
2024/02/07 06:39:25;;;;;;;2.53;2.30;;;;;;;;;;6359916;28;20309;-56
2024/02/07 06:42:31;;;;;;;2.37;2.33;;;;;;;;;;6360043;28;20247;-57
2024/02/07 06:45:35;;;;;;;2.33;2.23;;;;;;;;;;6359400;28;20362;-57
2024/02/07 06:48:39;;;;;;;2.07;2.07;;;;;;;;;;6359490;28;20286;-59
2024/02/07 06:51:43;;;;;;;2.63;2.53;;;;;;;;;;6359938;28;20291;-57
2024/02/07 06:54:47;;;;;;;2.30;2.20;;;;;;;;;;6359033;28;20313;-57
2024/02/07 06:57:53;;;;;;;2.40;2.30;;;;;;;;;;6357379;28;20557;-57
2024/02/07 07:00:57;;;;;;;2.17;2.10;;;;;;;;;;6359867;28;20281;-57
2024/02/07 07:04:01;;;;;;;2.50;2.40;;;;;;;;;;6359495;28;20291;-57
2024/02/07 07:07:05;;;;;;;2.27;2.27;;;;;;;;;;6359585;28;20302;-60
2024/02/07 07:10:10;;;;;;;2.97;2.40;;;;;;;;;;6362324;27;20295;-61
2024/02/07 07:13:15;;;;;;;2.40;2.20;;;;;;;;;;6384173;27;20295;-57
2024/02/07 07:16:20;;;;;;;2.57;2.40;;;;;;;;;;6385294;27;20283;-57
2024/02/07 07:19:24;;;;;;;2.50;2.40;;;;;;;;;;6384618;27;20297;-56
2024/02/07 07:22:28;;;;;;;2.23;2.13;;;;;;;;;;6384939;27;20298;-56
2024/02/07 07:25:32;;;;;;;2.23;2.23;;;;;;;;;;6380404;27;20292;-56
2024/02/07 07:28:38;;;;;;;2.10;2.00;;;;;;;;;;6359302;28;20296;-56
2024/02/07 07:31:42;;;;;;;2.00;2.00;;;;;;;;;;6359686;28;20296;-58
2024/02/07 07:34:46;;;;;;;2.20;2.10;;;;;;;;;;6358958;28;20292;-59
2024/02/07 07:37:50;;;;;;;2.20;2.00;;;;;;;;;;6358949;28;20290;-57
2024/02/07 07:40:54;;;;;;;1.83;1.83;;;;;;;;;;6340541;28;20479;-58
2024/02/07 07:44:00;;;;;;;2.30;2.20;;;;;;;;;;6358897;28;20300;-57
2024/02/07 07:47:04;;;;;;;2.40;2.03;;;;;;;;;;6359267;28;20303;-59
2024/02/07 07:50:09;;;;;;;2.43;2.30;;;;;;;;;;6358994;28;20585;-57
2024/02/07 07:53:13;;;;;;;2.23;2.13;;;;;;;;;;6354780;28;20329;-57
2024/02/07 07:56:17;;;;;;;2.17;2.13;;;;;;;;;;6354778;28;20305;-57
2024/02/07 07:59:23;;;;;;;2.17;2.17;;;;;;;;;;6358474;28;20482;-57
2024/02/07 08:02:27;;;;;;;2.47;2.47;;;;;;;;;;6358624;28;20289;-57
2024/02/07 08:05:31;;;;;;;1.80;1.80;;;;;;;;;;6358296;28;20590;-58
2024/02/07 08:08:36;;;;;;;1.93;1.83;;;;;;;;;;6360264;28;20293;-59
2024/02/07 08:11:40;;;;;;;4.33;2.20;;;;;;;;;;6379912;28;20309;-58
2024/02/07 08:14:46;;;;;;;2.17;2.00;;;;;;;;;;6385501;27;20296;-56
2024/02/07 08:17:49;;;;;;;2.07;2.07;;;;;;;;;;6384947;27;20296;-57
2024/02/07 08:20:54;;;;;;;1.87;1.87;;;;;;;;;;6385473;27;20288;-57
2024/02/07 08:23:58;;;;;;;2.90;2.03;;;;;;;;;;6388060;27;20300;-57
2024/02/07 08:27:01;;;;;;;1.87;1.87;;;;;;;;;;6372630;27;20290;-58
2024/02/07 08:30:08;;;;;;;2.00;1.90;;;;;;;;;;6363341;28;20301;-58
2024/02/07 08:33:13;;;;;;;1.90;1.90;;;;;;;;;;6362697;28;20296;-57
2024/02/07 08:36:17;;;;;;;1.97;1.90;;;;;;;;;;6363197;28;20575;-57
2024/02/07 08:39:21;;;;;;;1.77;1.77;;;;;;;;;;6362542;28;20289;-57
2024/02/07 08:42:25;;;;;;;2.73;1.80;;;;;;;;;;6362158;28;20557;-55
2024/02/07 08:45:31;;;;;;;2.07;1.97;;;;;;;;;;6362829;28;20300;-58
2024/02/07 08:48:35;;;;;;;2.20;2.10;;;;;;;;;;6367692;28;20308;-57
2024/02/07 08:51:39;;;;;;;2.50;1.80;;;;;;;;;;6370490;28;20257;-57
2024/02/07 08:54:43;;;;;;;2.53;2.33;;;;;;;;;;6364459;28;20296;-57
2024/02/07 08:57:47;;;;;;;1.80;1.80;;;;;;;;;;6369388;28;20313;-57
2024/02/07 09:00:52;;;;;;;1.80;1.80;;;;;;;;;;6369764;28;20287;-57
2024/02/07 09:03:56;;;;;;;1.90;1.80;;;;;;;;;;6366452;28;20285;-57
2024/02/07 09:07:00;;;;;;;2.10;2.00;;;;;;;;;;6368804;28;20288;-55
2024/02/07 09:10:04;;;;;;;1.90;1.90;;;;;;;;;;6369224;27;20288;-56
2024/02/07 09:13:08;;;;;;;2.10;1.90;;;;;;;;;;6393675;27;20295;-57
2024/02/07 09:16:13;;;;;;;2.00;1.90;;;;;;;;;;6394318;27;20367;-58
2024/02/07 09:19:17;;;;;;;2.27;2.10;;;;;;;;;;6390816;27;20475;-57
2024/02/07 09:22:21;;;;;;;1.83;1.83;;;;;;;;;;6393117;27;20289;-58
2024/02/07 09:25:25;;;;;;;4.77;2.00;;;;;;;;;;6384289;27;20292;-57
2024/02/07 09:28:29;;;;;;;2.10;2.00;;;;;;;;;;6366929;28;20293;-57
2024/02/07 09:31:35;;;;;;;2.17;2.07;;;;;;;;;;6367075;28;20508;-58
2024/02/07 09:34:43;;;;;;;3.50;2.17;;;;;;;;;;6362641;28;20289;-58
2024/02/07 09:37:47;;;;;;;2.40;2.30;;;;;;;;;;6365610;28;20294;-55
2024/02/07 09:40:54;;;;;;;1.90;1.90;;;;;;;;;;6365804;28;20294;-57
2024/02/07 09:43:59;;;;;;;2.20;2.07;;;;;;;;;;6364880;28;20288;-58
2024/02/07 09:47:05;;;;;;;2.40;2.30;;;;;;;;;;6364988;28;20293;-56
2024/02/07 09:50:11;;;;;;;2.13;2.03;;;;;;;;;;6361676;28;20354;-57
2024/02/07 09:53:15;;;;;;;4.07;2.20;;;;;;;;;;6359760;28;20471;-56
2024/02/07 09:56:19;;;;;;;2.07;1.97;;;;;;;;;;6358603;28;20581;-55
2024/02/07 09:59:25;;;;;;;3.23;2.17;;;;;;;;;;6363163;28;20292;-56
2024/02/07 10:02:32;;;;;;;1.80;1.80;;;;;;;;;;6363668;28;20294;-56
2024/02/07 10:05:36;;;;;;;1.80;1.80;;;;;;;;;;6360654;28;20301;-55
2024/02/07 10:08:40;;;;;;;3.50;1.97;;;;;;;;;;6360309;28;20300;-57
2024/02/07 10:11:47;;;;;;;1.90;1.80;;;;;;;;;;6360731;28;20312;-58
2024/02/07 10:14:52;;;;;;;1.77;1.77;;;;;;;;;;6385676;27;20286;-55
2024/02/07 10:17:57;;;;;;;1.77;1.77;;;;;;;;;;6385702;27;20591;-57
2024/02/07 10:21:02;;;;;;;1.80;1.80;;;;;;;;;;6386339;27;20314;-57
2024/02/07 10:24:07;;;;;;;2.00;2.00;;;;;;;;;;6384425;27;20300;-57
2024/02/07 10:27:10;;;;;;;1.70;1.60;;;;;;;;;;6367643;27;20469;-57
2024/02/07 10:30:15;;;;;;;1.90;1.90;;;;;;;;;;6359148;28;20465;-57
2024/02/07 10:33:20;;;;;;;1.80;1.80;;;;;;;;;;6360043;28;20297;-57
2024/02/07 10:36:35;;;;;;;2.43;2.33;;;;;;;;;;6358168;28;20276;-57
2024/02/07 10:39:39;;;;;;;2.27;2.17;;;;;;;;;;6359432;28;20292;-58
2024/02/07 10:42:46;;;;;;;1.80;1.80;;;;;;;;;;6359713;28;20286;-56
2024/02/07 10:45:58;;;;;;;2.77;2.13;;;;;;;;;;6360700;28;20293;-57
2024/02/07 10:49:04;;;;;;;2.10;2.00;;;;;;;;;;6359388;28;20290;-58
2024/02/07 10:52:11;;;;;;;1.90;1.90;;;;;;;;;;6360091;28;20300;-59
2024/02/07 10:55:15;;;;;;;3.10;2.00;;;;;;;;;;6359358;28;20297;-59
2024/02/07 10:58:24;;;;;;;2.47;2.13;;;;;;;;;;6359757;28;20292;-58
2024/02/07 11:01:28;;;;;;;2.17;1.90;;;;;;;;;;6359860;28;20286;-58
2024/02/07 11:04:34;;;;;;;2.00;1.93;;;;;;;;;;6359351;28;20302;-58
2024/02/07 11:07:39;;;;;;;2.03;2.03;;;;;;;;;;6359228;28;20293;-58
2024/02/07 11:10:43;;;;;;;2.27;2.03;;;;;;;;;;6370797;27;20292;-57
2024/02/07 11:13:48;;;;;;;2.10;2.10;;;;;;;;;;6384493;27;20302;-57
2024/02/07 11:16:52;;;;;;;2.20;2.10;;;;;;;;;;6385008;27;20296;-59
2024/02/07 11:19:58;;;;;;;2.00;1.90;;;;;;;;;;6384618;27;20348;-56
2024/02/07 11:23:05;;;;;;;1.93;1.83;;;;;;;;;;6384523;27;20288;-59
2024/02/07 11:26:09;;;;;;;1.77;1.77;;;;;;;;;;6375291;27;20285;-59
2024/02/07 11:29:13;;;;;;;1.70;1.60;;;;;;;;;;6358555;28;20481;-55
2024/02/07 11:32:18;;;;;;;1.87;1.87;;;;;;;;;;6359515;28;20378;-57
2024/02/07 11:35:24;;;;;;;3.67;2.00;;;;;;;;;;6358556;28;20302;-57
2024/02/07 11:38:36;;;;;;;2.83;1.90;;;;;;;;;;6359020;28;20295;-56
2024/02/07 11:41:41;;;;;;;2.43;2.33;;;;;;;;;;6358698;28;20294;-60
2024/02/07 11:44:52;;;;;;;2.37;2.20;;;;;;;;;;6358183;28;20290;-56
2024/02/07 11:47:57;;;;;;;1.77;1.73;;;;;;;;;;6358146;28;20410;-58
2024/02/07 11:51:08;;;;;;;1.67;1.67;;;;;;;;;;6358879;28;20301;-57
2024/02/07 11:54:12;;;;;;;2.17;2.07;;;;;;;;;;6357984;28;20309;-58
2024/02/07 11:57:17;;;;;;;1.90;1.80;;;;;;;;;;6359841;28;20286;-60
2024/02/07 12:00:23;;;;;;;2.40;2.30;;;;;;;;;;6363599;28;20298;-57
2024/02/07 12:03:27;;;;;;;2.90;1.80;;;;;;;;;;6362674;28;20289;-57
2024/02/07 12:06:33;;;;;;;3.17;1.90;;;;;;;;;;6364028;28;20247;-57
2024/02/07 12:09:38;;;;;;;2.03;2.03;;;;;;;;;;6365066;27;20300;-57
2024/02/07 12:12:42;;;;;;;4.80;1.73;;;;;;;;;;6388672;27;20423;-61
2024/02/07 12:15:46;;;;;;;1.70;1.60;;;;;;;;;;6389778;27;20285;-57
2024/02/07 12:18:50;;;;;;;2.13;2.03;;;;;;;;;;6389115;27;20290;-57
2024/02/07 12:21:56;;;;;;;3.40;2.00;;;;;;;;;;6389526;27;20288;-57
2024/02/07 12:25:02;;;;;;;1.87;1.80;;;;;;;;;;6388543;27;20284;-57
2024/02/07 12:28:10;;;;;;;2.93;1.90;;;;;;;;;;6337511;28;20482;-57
2024/02/07 12:31:15;;;;;;;2.03;2.03;;;;;;;;;;6338020;28;20290;-55
2024/02/07 12:34:26;;;;;;;1.90;1.80;;;;;;;;;;6337545;28;20295;-55
2024/02/07 12:37:33;;;;;;;1.93;1.93;;;;;;;;;;6337999;28;20575;-56
2024/02/07 12:40:37;;;;;;;1.97;1.87;;;;;;;;;;6337595;28;20297;-56
2024/02/07 12:43:41;;;;;;;2.00;1.80;;;;;;;;;;6336925;28;20316;-54
2024/02/07 12:46:45;;;;;;;2.30;2.20;;;;;;;;;;6337923;28;20293;-58
2024/02/07 12:49:50;;;;;;;6.47;1.97;;;;;;;;;;6337394;28;20295;-57
2024/02/07 12:52:56;;;;;;;1.70;1.70;;;;;;;;;;6335073;28;20294;-57
2024/02/07 12:56:00;;;;;;;3.40;1.80;;;;;;;;;;6337202;28;20428;-56
2024/02/07 12:59:04;;;;;;;1.80;1.80;;;;;;;;;;6335908;28;20338;-56
2024/02/07 13:02:09;;;;;;;3.40;2.40;;;;;;;;;;6337161;28;20301;-57
2024/02/07 13:05:14;;;;;;;1.90;1.83;;;;;;;;;;6336715;28;20291;-55
2024/02/07 13:08:20;;;;;;;1.73;1.63;;;;;;;;;;6335703;28;20283;-57
2024/02/07 13:11:25;;;;;;;1.63;1.53;;;;;;;;;;6353643;28;20292;-58
2024/02/07 13:14:29;;;;;;;1.70;1.70;;;;;;;;;;6387184;27;20373;-56
2024/02/07 13:17:35;;;;;;;2.17;1.87;;;;;;;;;;6387511;27;20284;-56
2024/02/07 13:20:40;;;;;;;1.73;1.63;;;;;;;;;;6386613;27;20297;-59
2024/02/07 13:23:45;;;;;;;1.50;1.50;;;;;;;;;;6387033;27;20297;-56
2024/02/07 13:26:51;;;;;;;1.57;1.57;;;;;;;;;;6353358;28;20482;-55
2024/02/07 13:29:55;;;;;;;1.63;1.50;;;;;;;;;;6361382;28;20296;-57
2024/02/07 13:32:59;;;;;;;4.47;1.80;;;;;;;;;;6361103;28;20292;-58
2024/02/07 13:36:03;;;;;;;1.80;1.60;;;;;;;;;;6361346;28;20299;-57
2024/02/07 13:39:09;;;;;;;4.53;1.97;;;;;;;;;;6360856;28;20282;-58
2024/02/07 13:42:13;;;;;;;3.40;1.73;;;;;;;;;;6361735;28;20294;-58
2024/02/07 13:45:18;;;;;;;4.43;1.83;;;;;;;;;;6361414;28;20332;-58
2024/02/07 13:48:28;;;;;;;1.90;1.80;;;;;;;;;;6359984;28;20283;-59
2024/02/07 13:51:32;;;;;;;5.30;2.07;;;;;;;;;;6361020;28;20259;-56
2024/02/07 13:54:38;;;;;;;1.60;1.60;;;;;;;;;;6360758;28;20294;-58
2024/02/07 13:57:42;;;;;;;2.77;1.70;;;;;;;;;;6360364;28;20312;-57
2024/02/07 14:00:46;;;;;;;1.63;1.63;;;;;;;;;;6360951;28;20453;-58
2024/02/07 14:03:50;;;;;;;3.07;1.80;;;;;;;;;;6360496;28;20557;-56
2024/02/07 14:06:54;;;;;;;6.80;2.43;;;;;;;;;;6360946;28;20290;-58
2024/02/07 14:09:59;;;;;;;4.47;2.33;;;;;;;;;;6360238;28;20591;-58
2024/02/07 14:13:04;;;;;;;7.50;2.20;;;;;;;;;;6385565;27;20300;-57
2024/02/07 14:16:08;;;;;;;2.27;2.07;;;;;;;;;;6386263;27;20296;-57
2024/02/07 14:19:14;;;;;;;1.73;1.70;;;;;;;;;;6385577;27;20372;-57
2024/02/07 14:22:18;;;;;;;6.30;2.00;;;;;;;;;;6385814;27;20338;-57
2024/02/07 14:25:23;;;;;;;2.93;1.70;;;;;;;;;;6382812;27;20306;-58
2024/02/07 14:28:27;;;;;;;3.13;1.70;;;;;;;;;;6359940;28;20291;-58
2024/02/07 14:31:31;;;;;;;1.60;1.60;;;;;;;;;;6360247;28;20291;-58
2024/02/07 14:34:35;;;;;;;1.83;1.67;;;;;;;;;;6359916;28;20297;-58
2024/02/07 14:37:40;;;;;;;4.60;2.03;;;;;;;;;;6359567;28;20429;-58
2024/02/07 14:40:45;;;;;;;2.40;1.27;;;;;;;;;;6360523;28;20492;-57
2024/02/07 14:43:49;;;;;;;1.50;1.50;;;;;;;;;;6340654;28;20310;-58
2024/02/07 14:46:53;;;;;;;3.07;1.57;;;;;;;;;;6360105;28;20453;-57
2024/02/07 14:49:57;;;;;;;4.70;1.80;;;;;;;;;;6359724;28;20314;-56
2024/02/07 14:53:01;;;;;;;2.10;2.00;;;;;;;;;;6359184;28;20286;-58
2024/02/07 14:56:08;;;;;;;2.03;1.60;;;;;;;;;;6341051;28;20295;-56
2024/02/07 14:59:12;;;;;;;2.00;1.63;;;;;;;;;;6359271;28;20294;-56
2024/02/07 15:02:22;;;;;;;4.90;1.60;;;;;;;;;;6359959;28;20276;-58
2024/02/07 15:05:26;;;;;;;3.43;1.73;;;;;;;;;;6359335;28;20289;-58
2024/02/07 15:08:31;;;;;;;5.67;1.90;;;;;;;;;;6359208;28;20401;-58
2024/02/07 15:11:36;;;;;;;2.50;1.70;;;;;;;;;;6359479;28;20313;-57
2024/02/07 15:14:40;;;;;;;2.97;1.70;;;;;;;;;;6358887;28;20411;-58
2024/02/07 15:17:45;;;;;;;2.63;1.63;;;;;;;;;;6359295;28;20290;-57
2024/02/07 15:20:49;;;;;;;2.47;1.80;;;;;;;;;;6359781;28;20305;-58
2024/02/07 15:23:53;;;;;;;3.77;1.90;;;;;;;;;;6359228;28;20295;-57
2024/02/07 15:26:58;;;;;;;3.67;1.70;;;;;;;;;;6359387;28;20392;-57
2024/02/07 15:30:03;;;;;;;3.78;1.92;;;;;;;;;;6357297;28;20477;-56
2024/02/07 15:33:07;;;;;;;2.80;1.70;;;;;;;;;;6357994;28;20303;-56
2024/02/07 15:36:11;;;;;;;3.60;2.00;;;;;;;;;;6359213;28;20338;-58
2024/02/07 15:39:15;;;;;;;2.13;1.90;;;;;;;;;;6358051;28;20316;-56
2024/02/07 15:42:21;;;;;;;3.27;1.90;;;;;;;;;;6358717;28;20376;-57
2024/02/07 15:45:24;;;;;;;5.63;2.00;;;;;;;;;;6358077;28;20587;-58
2024/02/07 15:48:28;;;;;;;2.97;1.77;;;;;;;;;;6358638;28;20294;-58
2024/02/07 15:51:32;;;;;;;1.90;1.90;;;;;;;;;;6358749;28;20283;-57
2024/02/07 15:54:37;;;;;;;3.03;1.53;;;;;;;;;;6358664;28;20298;-57
2024/02/07 15:57:42;;;;;;;5.43;1.97;;;;;;;;;;6358173;28;20240;-57
2024/02/07 16:00:46;;;;;;;2.07;1.80;;;;;;;;;;6358922;28;20291;-59
2024/02/07 16:03:50;;;;;;;2.10;1.87;;;;;;;;;;6358072;28;20291;-59
2024/02/07 16:06:55;;;;;;;2.93;1.73;;;;;;;;;;6358591;28;20286;-57
2024/02/07 16:10:00;;;;;;;10.67;2.33;;;;;;;;;;6361927;28;20454;-57
2024/02/07 16:13:05;;;;;;;2.17;2.03;;;;;;;;;;6383443;28;20291;-56
2024/02/07 16:16:09;;;;;;;4.30;1.93;;;;;;;;;;6384400;28;20363;-57
2024/02/07 16:19:13;;;;;;;3.67;2.40;;;;;;;;;;6383573;28;20309;-57
2024/02/07 16:22:17;;;;;;;2.03;1.93;;;;;;;;;;6384304;27;20297;-56
2024/02/07 16:25:22;;;;;;;1.60;1.60;;;;;;;;;;6380764;28;20297;-57
2024/02/07 16:28:27;;;;;;;5.77;2.00;;;;;;;;;;6357736;28;20300;-56
2024/02/07 16:31:31;;;;;;;1.80;1.70;;;;;;;;;;6358291;28;20318;-55
2024/02/07 16:34:35;;;;;;;3.53;1.90;;;;;;;;;;6357863;28;20296;-57
2024/02/07 16:37:39;;;;;;;2.03;1.97;;;;;;;;;;6354029;28;20298;-58
2024/02/07 16:40:43;;;;;;;3.57;1.90;;;;;;;;;;6358430;28;20526;-57
2024/02/07 16:43:49;;;;;;;5.13;1.80;;;;;;;;;;6359686;28;20335;-57
2024/02/07 16:46:53;;;;;;;1.97;1.87;;;;;;;;;;6363518;28;20294;-58
2024/02/07 16:49:57;;;;;;;2.00;2.00;;;;;;;;;;6362569;28;20289;-58
2024/02/07 16:53:02;;;;;;;7.53;2.30;;;;;;;;;;6362185;28;20322;-56
2024/02/07 16:56:06;;;;;;;2.17;1.87;;;;;;;;;;6362342;28;20300;-56
2024/02/07 16:59:12;;;;;;;5.30;1.83;;;;;;;;;;6362113;28;20295;-57
2024/02/07 17:02:16;;;;;;;2.93;1.87;;;;;;;;;;6362793;28;20293;-56
2024/02/07 17:05:20;;;;;;;4.03;1.80;;;;;;;;;;6361977;28;20285;-56
2024/02/07 17:08:24;;;;;;;3.03;2.00;;;;;;;;;;6361915;28;20294;-56
2024/02/07 17:11:29;;;;;;;1.60;1.60;;;;;;;;;;6362587;28;20285;-56
2024/02/07 17:14:35;;;;;;;2.00;2.00;;;;;;;;;;6387575;27;20294;-57
2024/02/07 17:17:39;;;;;;;2.43;1.87;;;;;;;;;;6387296;27;20284;-59
2024/02/07 17:20:45;;;;;;;6.60;2.17;;;;;;;;;;6387915;27;20310;-58
2024/02/07 17:23:49;;;;;;;1.87;1.73;;;;;;;;;;6387693;27;20592;-58
2024/02/07 17:26:53;;;;;;;2.60;2.00;;;;;;;;;;6388176;27;20292;-56
2024/02/07 17:29:58;;;;;;;4.03;1.80;;;;;;;;;;6386793;27;20568;-57
2024/02/07 17:33:07;;;;;;;2.43;1.60;;;;;;;;;;6386980;27;20293;-56
2024/02/07 17:36:12;;;;;;;5.13;1.67;;;;;;;;;;6387917;27;20296;-57
2024/02/07 17:39:15;;;;;;;7.03;2.30;;;;;;;;;;6386861;27;20343;-58
2024/02/07 17:42:19;;;;;;;6.53;2.13;;;;;;;;;;6387155;27;20306;-57
2024/02/07 17:45:27;;;;;;;10.87;1.87;;;;;;;;;;6385265;27;20286;-56
2024/02/07 17:48:32;;;;;;;3.10;2.27;;;;;;;;;;6386322;27;20389;-58
2024/02/07 17:51:36;;;;;;;6.27;1.87;;;;;;;;;;6387138;27;20245;-56
2024/02/07 17:54:39;;;;;;;9.43;2.03;;;;;;;;;;6385359;27;20310;-58
2024/02/07 17:57:43;;;;;;;4.27;1.87;;;;;;;;;;6385989;27;20286;-57
2024/02/07 18:00:48;;;;;;;2.40;2.30;;;;;;;;;;6386830;27;20282;-58
2024/02/07 18:03:52;;;;;;;3.63;2.23;;;;;;;;;;6386153;27;20306;-57
2024/02/07 18:06:56;;;;;;;5.97;2.23;;;;;;;;;;6386693;27;20294;-57
2024/02/07 18:10:00;;;;;;;3.67;2.77;;;;;;;;;;6380474;27;20293;-58
2024/02/07 18:13:04;;;;;;;2.30;2.07;;;;;;;;;;6360190;28;20294;-58
2024/02/07 18:16:10;;;;;;;4.37;2.27;;;;;;;;;;6360980;28;20298;-57
2024/02/07 18:19:14;;;;;;;3.87;2.00;;;;;;;;;;6360239;28;20299;-57
2024/02/07 18:22:18;;;;;;;4.27;2.00;;;;;;;;;;6361198;28;20285;-57
2024/02/07 18:25:23;;;;;;;7.73;2.23;;;;;;;;;;6360366;28;20647;-57
2024/02/07 18:28:27;;;;;;;7.63;2.50;;;;;;;;;;6385613;27;20295;-57
2024/02/07 18:31:32;;;;;;;8.87;2.10;;;;;;;;;;6386217;27;20295;-59
2024/02/07 18:34:36;;;;;;;5.10;2.40;;;;;;;;;;6385471;27;20306;-58
2024/02/07 18:37:40;;;;;;;2.23;1.87;;;;;;;;;;6349383;27;20292;-60
2024/02/07 18:40:44;;;;;;;2.10;1.90;;;;;;;;;;6335251;28;20370;-59
2024/02/07 18:43:48;;;;;;;5.80;2.20;;;;;;;;;;6334299;28;20302;-58
2024/02/07 18:46:53;;;;;;;6.23;2.50;;;;;;;;;;6334707;28;20428;-56
2024/02/07 18:49:57;;;;;;;3.07;2.10;;;;;;;;;;6334375;28;20300;-59
2024/02/07 18:53:01;;;;;;;6.17;2.50;;;;;;;;;;6333843;28;20292;-58
2024/02/07 18:56:06;;;;;;;2.50;2.30;;;;;;;;;;6334744;28;20304;-58
2024/02/07 18:59:11;;;;;;;2.23;2.03;;;;;;;;;;6315492;28;20513;-59
2024/02/07 19:02:16;;;;;;;2.30;2.10;;;;;;;;;;6334810;28;20291;-59
2024/02/07 19:05:25;;;;;;;1.97;1.97;;;;;;;;;;6334104;28;20297;-56
2024/02/07 19:08:29;;;;;;;4.90;2.10;;;;;;;;;;6333645;28;20303;-58
2024/02/07 19:11:34;;;;;;;5.77;2.10;;;;;;;;;;6352977;28;20306;-58
2024/02/07 19:14:38;;;;;;;4.73;1.90;;;;;;;;;;6384523;27;20301;-58
2024/02/07 19:17:44;;;;;;;2.30;2.20;;;;;;;;;;6384437;27;20578;-59
2024/02/07 19:20:48;;;;;;;3.33;1.97;;;;;;;;;;6385347;27;20386;-58
2024/02/07 19:23:52;;;;;;;4.63;2.17;;;;;;;;;;6382620;27;20312;-58
2024/02/07 19:26:56;;;;;;;8.00;2.10;;;;;;;;;;6350155;28;20472;-57
2024/02/07 19:30:01;;;;;;;5.37;2.00;;;;;;;;;;6359971;28;20289;-58
2024/02/07 19:33:06;;;;;;;3.10;2.17;;;;;;;;;;6358946;28;20302;-58